LSZH/ZRH METAR and TAF weather

Enter ICAO airport designator
Station Type Date Time Source
LSZH METAR 2021/05/11 01:20 UTC NOAA

LSZH 110120Z AUTO 30005KT 9999 FEW032 08/08 Q1008 BECMG 9999 SCT030


Station Type Date Time Source
LSZH Decoded METAR 2021/05/11 01:20 UTC NOAA

Zurich-Kloten, Switzerland (LSZH) 47-29N 008-32E 432M
May 10, 2021 - 09:20 PM EDT / 2021.05.11 0120 UTC
Wind: from the WNW (300 degrees) at 6 MPH (5 KT):0
Visibility: greater than 7 mile(s):0
Sky conditions: mostly clear
Temperature: 46 F (8 C)
Dew Point: 46 F (8 C)
Relative Humidity: 100%
Pressure (altimeter): 29.77 in. Hg (1008 hPa)
ob: LSZH 110120Z AUTO 30005KT 9999 FEW032 08/08 Q1008 BECMG 9999 SCT030
cycle: 1

Station Type Date Time Source
LSZH TAF 2021/05/10 21:36 UTC NOAA

TAF LSZH 102025Z 1021/1203 VRB02KT 9999 SCT040 TX14/1113Z TN11/1104Z PROB40 1107/1115 27012KT
TEMPO 1112/1203 RA BKN025

Example: see airport list